sensor_id;sensor_type;location;lat;lon;timestamp;P1;durP1;ratioP1;P2;durP2;ratioP2
68178;SDS011;54998;42.656;23.382;2022-10-16T00:01:10;32.78;;;14.07;;
68178;SDS011;54998;42.656;23.382;2022-10-16T00:03:38;30.38;;;12.57;;
68178;SDS011;54998;42.656;23.382;2022-10-16T00:06:05;23.08;;;11.15;;
68178;SDS011;54998;42.656;23.382;2022-10-16T00:08:31;24.80;;;11.48;;
68178;SDS011;54998;42.656;23.382;2022-10-16T00:11:00;24.48;;;12.85;;
68178;SDS011;54998;42.656;23.382;2022-10-16T00:13:28;26.65;;;12.95;;
68178;SDS011;54998;42.656;23.382;2022-10-16T00:15:55;23.30;;;11.82;;
68178;SDS011;54998;42.656;23.382;2022-10-16T00:18:21;26.88;;;11.80;;
68178;SDS011;54998;42.656;23.382;2022-10-16T00:20:47;26.27;;;13.52;;
68178;SDS011;54998;42.656;23.382;2022-10-16T00:23:12;23.42;;;12.02;;
68178;SDS011;54998;42.656;23.382;2022-10-16T00:25:38;23.25;;;12.05;;
68178;SDS011;54998;42.656;23.382;2022-10-16T00:28:03;25.45;;;12.68;;
68178;SDS011;54998;42.656;23.382;2022-10-16T00:30:29;38.28;;;16.65;;
68178;SDS011;54998;42.656;23.382;2022-10-16T00:32:54;29.48;;;15.10;;
68178;SDS011;54998;42.656;23.382;2022-10-16T00:35:20;27.50;;;14.85;;
68178;SDS011;54998;42.656;23.382;2022-10-16T00:37:45;25.33;;;12.93;;
68178;SDS011;54998;42.656;23.382;2022-10-16T00:40:11;28.65;;;14.45;;
68178;SDS011;54998;42.656;23.382;2022-10-16T00:42:36;26.63;;;13.98;;
68178;SDS011;54998;42.656;23.382;2022-10-16T00:45:02;24.25;;;13.32;;
68178;SDS011;54998;42.656;23.382;2022-10-16T00:47:35;22.13;;;11.43;;
68178;SDS011;54998;42.656;23.382;2022-10-16T00:50:09;24.02;;;12.65;;
68178;SDS011;54998;42.656;23.382;2022-10-16T00:52:41;21.25;;;10.98;;
68178;SDS011;54998;42.656;23.382;2022-10-16T00:55:09;24.08;;;13.65;;
68178;SDS011;54998;42.656;23.382;2022-10-16T00:57:35;26.40;;;11.48;;
68178;SDS011;54998;42.656;23.382;2022-10-16T01:00:03;22.45;;;11.73;;
68178;SDS011;54998;42.656;23.382;2022-10-16T01:02:30;23.02;;;11.30;;
68178;SDS011;54998;42.656;23.382;2022-10-16T01:04:55;31.27;;;16.50;;
68178;SDS011;54998;42.656;23.382;2022-10-16T01:15:34;26.58;;;12.88;;
68178;SDS011;54998;42.656;23.382;2022-10-16T01:18:08;24.63;;;12.40;;
68178;SDS011;54998;42.656;23.382;2022-10-16T01:20:35;18.63;;;7.95;;
68178;SDS011;54998;42.656;23.382;2022-10-16T01:28:18;14.70;;;7.90;;
68178;SDS011;54998;42.656;23.382;2022-10-16T01:30:46;11.93;;;7.20;;
68178;SDS011;54998;42.656;23.382;2022-10-16T01:33:17;10.15;;;6.15;;
68178;SDS011;54998;42.656;23.382;2022-10-16T01:35:56;9.18;;;5.07;;
68178;SDS011;54998;42.656;23.382;2022-10-16T01:38:34;10.18;;;5.75;;
68178;SDS011;54998;42.656;23.382;2022-10-16T01:41:10;13.52;;;5.55;;
68178;SDS011;54998;42.656;23.382;2022-10-16T01:43:46;10.98;;;5.50;;
68178;SDS011;54998;42.656;23.382;2022-10-16T01:46:18;8.57;;;5.35;;
68178;SDS011;54998;42.656;23.382;2022-10-16T01:48:46;7.93;;;4.47;;
68178;SDS011;54998;42.656;23.382;2022-10-16T01:51:13;6.78;;;5.03;;
68178;SDS011;54998;42.656;23.382;2022-10-16T01:53:43;7.30;;;4.53;;
68178;SDS011;54998;42.656;23.382;2022-10-16T01:56:13;11.32;;;5.40;;
68178;SDS011;54998;42.656;23.382;2022-10-16T01:58:42;8.40;;;4.20;;
68178;SDS011;54998;42.656;23.382;2022-10-16T02:01:12;7.07;;;4.28;;
68178;SDS011;54998;42.656;23.382;2022-10-16T02:03:41;8.05;;;4.47;;
68178;SDS011;54998;42.656;23.382;2022-10-16T02:06:09;7.50;;;4.22;;
68178;SDS011;54998;42.656;23.382;2022-10-16T02:08:35;11.93;;;5.07;;
68178;SDS011;54998;42.656;23.382;2022-10-16T02:11:01;6.25;;;3.88;;
68178;SDS011;54998;42.656;23.382;2022-10-16T02:13:30;7.47;;;4.43;;
68178;SDS011;54998;42.656;23.382;2022-10-16T02:15:59;7.95;;;4.97;;
68178;SDS011;54998;42.656;23.382;2022-10-16T02:18:25;8.20;;;5.22;;
68178;SDS011;54998;42.656;23.382;2022-10-16T02:26:48;9.13;;;4.50;;
68178;SDS011;54998;42.656;23.382;2022-10-16T02:29:15;7.78;;;4.05;;
68178;SDS011;54998;42.656;23.382;2022-10-16T02:31:46;8.15;;;4.50;;
68178;SDS011;54998;42.656;23.382;2022-10-16T02:34:17;12.52;;;6.35;;
68178;SDS011;54998;42.656;23.382;2022-10-16T02:36:46;10.75;;;4.68;;
68178;SDS011;54998;42.656;23.382;2022-10-16T02:39:14;8.60;;;5.07;;
68178;SDS011;54998;42.656;23.382;2022-10-16T02:41:41;9.18;;;5.18;;
68178;SDS011;54998;42.656;23.382;2022-10-16T02:44:07;8.68;;;4.63;;
68178;SDS011;54998;42.656;23.382;2022-10-16T02:46:33;7.80;;;4.20;;
68178;SDS011;54998;42.656;23.382;2022-10-16T02:48:58;8.88;;;4.70;;
68178;SDS011;54998;42.656;23.382;2022-10-16T02:51:24;8.55;;;4.70;;
68178;SDS011;54998;42.656;23.382;2022-10-16T02:53:49;7.38;;;4.55;;
68178;SDS011;54998;42.656;23.382;2022-10-16T02:56:14;8.68;;;4.78;;
68178;SDS011;54998;42.656;23.382;2022-10-16T02:58:40;8.43;;;4.70;;
68178;SDS011;54998;42.656;23.382;2022-10-16T03:01:05;9.75;;;5.07;;
68178;SDS011;54998;42.656;23.382;2022-10-16T03:03:31;9.27;;;4.93;;
68178;SDS011;54998;42.656;23.382;2022-10-16T03:05:56;10.95;;;6.25;;
68178;SDS011;54998;42.656;23.382;2022-10-16T03:08:22;11.30;;;5.18;;
68178;SDS011;54998;42.656;23.382;2022-10-16T03:10:50;13.27;;;6.35;;
68178;SDS011;54998;42.656;23.382;2022-10-16T03:13:15;11.25;;;5.75;;
68178;SDS011;54998;42.656;23.382;2022-10-16T03:15:41;12.40;;;6.10;;
68178;SDS011;54998;42.656;23.382;2022-10-16T03:18:06;76.78;;;35.05;;
68178;SDS011;54998;42.656;23.382;2022-10-16T03:20:32;11.90;;;7.07;;
68178;SDS011;54998;42.656;23.382;2022-10-16T03:22:58;14.88;;;8.27;;
68178;SDS011;54998;42.656;23.382;2022-10-16T03:25:23;14.05;;;6.85;;
68178;SDS011;54998;42.656;23.382;2022-10-16T03:27:49;13.27;;;7.07;;
68178;SDS011;54998;42.656;23.382;2022-10-16T03:30:14;11.88;;;6.60;;
68178;SDS011;54998;42.656;23.382;2022-10-16T03:32:40;14.93;;;9.05;;
68178;SDS011;54998;42.656;23.382;2022-10-16T03:35:05;15.85;;;8.13;;
68178;SDS011;54998;42.656;23.382;2022-10-16T03:37:31;13.52;;;7.10;;
68178;SDS011;54998;42.656;23.382;2022-10-16T03:39:56;15.05;;;7.22;;
68178;SDS011;54998;42.656;23.382;2022-10-16T03:42:22;13.13;;;7.13;;
68178;SDS011;54998;42.656;23.382;2022-10-16T03:44:47;10.80;;;7.55;;
68178;SDS011;54998;42.656;23.382;2022-10-16T03:47:13;11.30;;;6.50;;
68178;SDS011;54998;42.656;23.382;2022-10-16T03:49:38;11.15;;;5.95;;
68178;SDS011;54998;42.656;23.382;2022-10-16T03:52:03;11.25;;;6.13;;
68178;SDS011;54998;42.656;23.382;2022-10-16T03:54:29;11.18;;;6.65;;
68178;SDS011;54998;42.656;23.382;2022-10-16T03:56:54;14.50;;;6.80;;
68178;SDS011;54998;42.656;23.382;2022-10-16T03:59:20;12.80;;;6.47;;
68178;SDS011;54998;42.656;23.382;2022-10-16T04:01:47;12.82;;;7.55;;
68178;SDS011;54998;42.656;23.382;2022-10-16T04:04:13;13.52;;;6.82;;
68178;SDS011;54998;42.656;23.382;2022-10-16T04:06:38;15.18;;;7.30;;
68178;SDS011;54998;42.656;23.382;2022-10-16T04:09:04;12.98;;;6.90;;
68178;SDS011;54998;42.656;23.382;2022-10-16T04:11:29;13.20;;;7.10;;
68178;SDS011;54998;42.656;23.382;2022-10-16T04:13:55;11.60;;;6.55;;
68178;SDS011;54998;42.656;23.382;2022-10-16T04:16:20;14.32;;;7.40;;
68178;SDS011;54998;42.656;23.382;2022-10-16T04:18:45;16.45;;;7.72;;
68178;SDS011;54998;42.656;23.382;2022-10-16T04:21:11;21.48;;;10.65;;
68178;SDS011;54998;42.656;23.382;2022-10-16T04:23:36;14.07;;;8.38;;
68178;SDS011;54998;42.656;23.382;2022-10-16T04:26:02;16.05;;;8.32;;
68178;SDS011;54998;42.656;23.382;2022-10-16T04:28:27;18.50;;;7.55;;
68178;SDS011;54998;42.656;23.382;2022-10-16T04:30:53;15.43;;;7.03;;
68178;SDS011;54998;42.656;23.382;2022-10-16T04:33:18;18.63;;;8.68;;
68178;SDS011;54998;42.656;23.382;2022-10-16T04:35:44;14.95;;;7.30;;
68178;SDS011;54998;42.656;23.382;2022-10-16T04:38:09;14.27;;;7.60;;
68178;SDS011;54998;42.656;23.382;2022-10-16T04:40:35;15.73;;;7.75;;
68178;SDS011;54998;42.656;23.382;2022-10-16T04:43:02;15.10;;;7.72;;
68178;SDS011;54998;42.656;23.382;2022-10-16T04:47:56;17.50;;;8.18;;
68178;SDS011;54998;42.656;23.382;2022-10-16T04:50:22;18.50;;;8.15;;
68178;SDS011;54998;42.656;23.382;2022-10-16T04:52:47;17.58;;;8.75;;
68178;SDS011;54998;42.656;23.382;2022-10-16T04:55:13;17.50;;;8.85;;
68178;SDS011;54998;42.656;23.382;2022-10-16T04:57:38;19.92;;;9.40;;
68178;SDS011;54998;42.656;23.382;2022-10-16T05:00:04;13.38;;;7.93;;
68178;SDS011;54998;42.656;23.382;2022-10-16T05:02:30;13.68;;;6.57;;
68178;SDS011;54998;42.656;23.382;2022-10-16T05:04:55;13.10;;;6.68;;
68178;SDS011;54998;42.656;23.382;2022-10-16T05:07:21;9.90;;;6.18;;
68178;SDS011;54998;42.656;23.382;2022-10-16T05:09:46;10.35;;;6.18;;
68178;SDS011;54998;42.656;23.382;2022-10-16T05:12:11;12.05;;;6.00;;
68178;SDS011;54998;42.656;23.382;2022-10-16T05:14:37;9.55;;;5.70;;
68178;SDS011;54998;42.656;23.382;2022-10-16T05:17:02;8.85;;;5.00;;
68178;SDS011;54998;42.656;23.382;2022-10-16T05:19:28;9.75;;;5.25;;
68178;SDS011;54998;42.656;23.382;2022-10-16T05:21:53;8.05;;;4.45;;
68178;SDS011;54998;42.656;23.382;2022-10-16T05:24:19;10.07;;;4.85;;
68178;SDS011;54998;42.656;23.382;2022-10-16T05:26:44;6.82;;;4.03;;
68178;SDS011;54998;42.656;23.382;2022-10-16T05:29:09;7.03;;;4.40;;
68178;SDS011;54998;42.656;23.382;2022-10-16T05:31:35;5.90;;;4.30;;
68178;SDS011;54998;42.656;23.382;2022-10-16T05:34:00;8.27;;;4.78;;
68178;SDS011;54998;42.656;23.382;2022-10-16T05:36:27;6.43;;;4.20;;
68178;SDS011;54998;42.656;23.382;2022-10-16T05:38:52;8.52;;;3.83;;
68178;SDS011;54998;42.656;23.382;2022-10-16T05:41:18;8.40;;;4.65;;
68178;SDS011;54998;42.656;23.382;2022-10-16T05:43:48;6.53;;;4.40;;
68178;SDS011;54998;42.656;23.382;2022-10-16T05:46:14;5.60;;;4.18;;
68178;SDS011;54998;42.656;23.382;2022-10-16T05:48:39;6.18;;;4.03;;
68178;SDS011;54998;42.656;23.382;2022-10-16T05:51:06;7.50;;;4.03;;
68178;SDS011;54998;42.656;23.382;2022-10-16T05:53:33;7.45;;;4.35;;
68178;SDS011;54998;42.656;23.382;2022-10-16T05:56:00;5.93;;;4.30;;
68178;SDS011;54998;42.656;23.382;2022-10-16T05:58:31;7.65;;;4.60;;
68178;SDS011;54998;42.656;23.382;2022-10-16T06:01:03;7.18;;;4.55;;
68178;SDS011;54998;42.656;23.382;2022-10-16T06:03:30;6.78;;;4.30;;
68178;SDS011;54998;42.656;23.382;2022-10-16T06:05:56;8.50;;;5.75;;
68178;SDS011;54998;42.656;23.382;2022-10-16T06:08:22;9.73;;;5.10;;
68178;SDS011;54998;42.656;23.382;2022-10-16T06:10:48;7.65;;;4.90;;
68178;SDS011;54998;42.656;23.382;2022-10-16T06:13:14;9.50;;;5.18;;
68178;SDS011;54998;42.656;23.382;2022-10-16T06:15:40;7.68;;;5.13;;
68178;SDS011;54998;42.656;23.382;2022-10-16T06:18:07;7.55;;;5.10;;
68178;SDS011;54998;42.656;23.382;2022-10-16T06:20:33;9.10;;;5.80;;
68178;SDS011;54998;42.656;23.382;2022-10-16T06:22:59;8.05;;;5.20;;
68178;SDS011;54998;42.656;23.382;2022-10-16T06:25:24;10.27;;;6.18;;
68178;SDS011;54998;42.656;23.382;2022-10-16T06:27:50;8.05;;;6.18;;
68178;SDS011;54998;42.656;23.382;2022-10-16T06:30:15;7.80;;;5.95;;
68178;SDS011;54998;42.656;23.382;2022-10-16T06:32:40;8.32;;;5.80;;
68178;SDS011;54998;42.656;23.382;2022-10-16T06:35:06;7.43;;;5.68;;
68178;SDS011;54998;42.656;23.382;2022-10-16T06:37:32;7.25;;;5.88;;
68178;SDS011;54998;42.656;23.382;2022-10-16T06:39:57;7.65;;;5.82;;
68178;SDS011;54998;42.656;23.382;2022-10-16T06:42:22;9.13;;;6.07;;
68178;SDS011;54998;42.656;23.382;2022-10-16T06:44:48;8.70;;;5.75;;
68178;SDS011;54998;42.656;23.382;2022-10-16T06:47:13;10.20;;;5.68;;
68178;SDS011;54998;42.656;23.382;2022-10-16T06:49:38;8.68;;;5.80;;
68178;SDS011;54998;42.656;23.382;2022-10-16T06:52:04;8.63;;;6.18;;
68178;SDS011;54998;42.656;23.382;2022-10-16T06:54:29;7.82;;;6.00;;
68178;SDS011;54998;42.656;23.382;2022-10-16T06:56:55;9.40;;;6.72;;
68178;SDS011;54998;42.656;23.382;2022-10-16T06:59:21;10.18;;;6.32;;
68178;SDS011;54998;42.656;23.382;2022-10-16T07:01:46;9.40;;;6.43;;
68178;SDS011;54998;42.656;23.382;2022-10-16T07:04:12;10.45;;;6.72;;
68178;SDS011;54998;42.656;23.382;2022-10-16T07:06:38;10.30;;;7.85;;
68178;SDS011;54998;42.656;23.382;2022-10-16T07:09:04;9.05;;;6.93;;
68178;SDS011;54998;42.656;23.382;2022-10-16T07:11:31;11.07;;;7.20;;
68178;SDS011;54998;42.656;23.382;2022-10-16T07:16:24;9.00;;;6.60;;
68178;SDS011;54998;42.656;23.382;2022-10-16T07:18:51;13.63;;;7.13;;
68178;SDS011;54998;42.656;23.382;2022-10-16T07:21:22;11.50;;;6.95;;
68178;SDS011;54998;42.656;23.382;2022-10-16T07:23:51;12.15;;;6.80;;
68178;SDS011;54998;42.656;23.382;2022-10-16T07:26:17;12.23;;;7.15;;
68178;SDS011;54998;42.656;23.382;2022-10-16T07:28:43;12.43;;;7.82;;
68178;SDS011;54998;42.656;23.382;2022-10-16T07:31:10;14.10;;;8.30;;
68178;SDS011;54998;42.656;23.382;2022-10-16T07:33:38;13.15;;;7.15;;
68178;SDS011;54998;42.656;23.382;2022-10-16T07:36:05;8.95;;;7.70;;
68178;SDS011;54998;42.656;23.382;2022-10-16T07:38:31;9.52;;;7.30;;
68178;SDS011;54998;42.656;23.382;2022-10-16T07:40:57;9.57;;;7.38;;
68178;SDS011;54998;42.656;23.382;2022-10-16T07:43:24;11.65;;;7.07;;
68178;SDS011;54998;42.656;23.382;2022-10-16T07:48:16;7.88;;;6.55;;
68178;SDS011;54998;42.656;23.382;2022-10-16T07:50:42;10.70;;;6.25;;
68178;SDS011;54998;42.656;23.382;2022-10-16T07:53:09;10.20;;;6.72;;
68178;SDS011;54998;42.656;23.382;2022-10-16T07:55:35;6.93;;;6.00;;
68178;SDS011;54998;42.656;23.382;2022-10-16T08:00:25;9.77;;;6.47;;
68178;SDS011;54998;42.656;23.382;2022-10-16T08:02:51;12.60;;;6.65;;
68178;SDS011;54998;42.656;23.382;2022-10-16T08:05:16;7.85;;;6.10;;
68178;SDS011;54998;42.656;23.382;2022-10-16T08:10:11;10.07;;;5.83;;
68178;SDS011;54998;42.656;23.382;2022-10-16T08:12:41;12.02;;;6.20;;
68178;SDS011;54998;42.656;23.382;2022-10-16T08:15:06;8.40;;;6.13;;
68178;SDS011;54998;42.656;23.382;2022-10-16T08:19:57;9.93;;;5.83;;
68178;SDS011;54998;42.656;23.382;2022-10-16T08:24:48;7.75;;;6.03;;
68178;SDS011;54998;42.656;23.382;2022-10-16T08:27:13;7.97;;;5.60;;
68178;SDS011;54998;42.656;23.382;2022-10-16T08:29:38;8.77;;;6.13;;
68178;SDS011;54998;42.656;23.382;2022-10-16T08:32:04;9.98;;;6.45;;
68178;SDS011;54998;42.656;23.382;2022-10-16T08:34:29;9.32;;;6.03;;
68178;SDS011;54998;42.656;23.382;2022-10-16T08:39:20;9.40;;;5.78;;
68178;SDS011;54998;42.656;23.382;2022-10-16T08:49:58;5.90;;;4.07;;
68178;SDS011;54998;42.656;23.382;2022-10-16T08:52:29;6.50;;;4.10;;
68178;SDS011;54998;42.656;23.382;2022-10-16T08:54:56;7.47;;;4.30;;
68178;SDS011;54998;42.656;23.382;2022-10-16T08:59:49;8.75;;;4.30;;
68178;SDS011;54998;42.656;23.382;2022-10-16T09:05:34;5.65;;;3.60;;
68178;SDS011;54998;42.656;23.382;2022-10-16T09:11:14;6.13;;;3.60;;
68178;SDS011;54998;42.656;23.382;2022-10-16T09:13:56;5.75;;;3.63;;
68178;SDS011;54998;42.656;23.382;2022-10-16T09:16:39;5.78;;;4.30;;
68178;SDS011;54998;42.656;23.382;2022-10-16T09:19:24;10.07;;;4.30;;
68178;SDS011;54998;42.656;23.382;2022-10-16T09:21:56;5.43;;;4.22;;
68178;SDS011;54998;42.656;23.382;2022-10-16T09:24:25;4.63;;;3.55;;
68178;SDS011;54998;42.656;23.382;2022-10-16T09:26:51;4.65;;;3.50;;
68178;SDS011;54998;42.656;23.382;2022-10-16T09:31:45;7.28;;;3.67;;
68178;SDS011;54998;42.656;23.382;2022-10-16T09:34:16;6.35;;;3.95;;
68178;SDS011;54998;42.656;23.382;2022-10-16T09:36:50;6.10;;;3.65;;
68178;SDS011;54998;42.656;23.382;2022-10-16T09:39:16;4.88;;;3.50;;
68178;SDS011;54998;42.656;23.382;2022-10-16T09:46:49;4.70;;;3.25;;
68178;SDS011;54998;42.656;23.382;2022-10-16T09:49:26;4.70;;;3.40;;
68178;SDS011;54998;42.656;23.382;2022-10-16T09:52:02;4.63;;;3.13;;
68178;SDS011;54998;42.656;23.382;2022-10-16T09:54:36;5.13;;;3.30;;
68178;SDS011;54998;42.656;23.382;2022-10-16T09:59:31;5.45;;;3.42;;
68178;SDS011;54998;42.656;23.382;2022-10-16T10:04:36;3.90;;;3.15;;
68178;SDS011;54998;42.656;23.382;2022-10-16T10:07:04;6.50;;;3.30;;
68178;SDS011;54998;42.656;23.382;2022-10-16T10:12:03;4.93;;;3.00;;
68178;SDS011;54998;42.656;23.382;2022-10-16T10:14:34;4.55;;;3.22;;
68178;SDS011;54998;42.656;23.382;2022-10-16T10:17:11;4.30;;;3.50;;
68178;SDS011;54998;42.656;23.382;2022-10-16T10:22:24;5.63;;;3.30;;
68178;SDS011;54998;42.656;23.382;2022-10-16T10:24:57;4.82;;;3.60;;
68178;SDS011;54998;42.656;23.382;2022-10-16T10:27:32;5.35;;;3.20;;
68178;SDS011;54998;42.656;23.382;2022-10-16T10:35:22;4.32;;;3.22;;
68178;SDS011;54998;42.656;23.382;2022-10-16T10:38:00;4.40;;;3.13;;
68178;SDS011;54998;42.656;23.382;2022-10-16T10:40:39;5.20;;;3.17;;
68178;SDS011;54998;42.656;23.382;2022-10-16T10:46:07;4.93;;;3.20;;
68178;SDS011;54998;42.656;23.382;2022-10-16T10:51:11;4.15;;;2.90;;
68178;SDS011;54998;42.656;23.382;2022-10-16T10:53:56;4.13;;;2.97;;
68178;SDS011;54998;42.656;23.382;2022-10-16T10:56:56;4.80;;;2.72;;
68178;SDS011;54998;42.656;23.382;2022-10-16T11:02:23;5.22;;;3.30;;
68178;SDS011;54998;42.656;23.382;2022-10-16T11:05:04;3.28;;;2.50;;
68178;SDS011;54998;42.656;23.382;2022-10-16T11:10:18;5.13;;;3.15;;
68178;SDS011;54998;42.656;23.382;2022-10-16T11:12:49;4.53;;;2.55;;
68178;SDS011;54998;42.656;23.382;2022-10-16T11:15:35;3.47;;;2.50;;
68178;SDS011;54998;42.656;23.382;2022-10-16T11:18:06;4.63;;;2.50;;
68178;SDS011;54998;42.656;23.382;2022-10-16T11:20:34;5.07;;;2.45;;
68178;SDS011;54998;42.656;23.382;2022-10-16T11:23:20;4.15;;;2.78;;
68178;SDS011;54998;42.656;23.382;2022-10-16T11:25:51;4.10;;;2.58;;
68178;SDS011;54998;42.656;23.382;2022-10-16T11:28:32;4.25;;;2.80;;
68178;SDS011;54998;42.656;23.382;2022-10-16T11:34:12;3.65;;;2.45;;
68178;SDS011;54998;42.656;23.382;2022-10-16T11:39:29;3.67;;;2.22;;
68178;SDS011;54998;42.656;23.382;2022-10-16T11:53:07;4.32;;;2.63;;
68178;SDS011;54998;42.656;23.382;2022-10-16T11:55:51;5.72;;;2.70;;
68178;SDS011;54998;42.656;23.382;2022-10-16T11:58:37;5.63;;;2.80;;
68178;SDS011;54998;42.656;23.382;2022-10-16T12:03:42;4.40;;;2.40;;
68178;SDS011;54998;42.656;23.382;2022-10-16T12:08:59;4.00;;;2.65;;
68178;SDS011;54998;42.656;23.382;2022-10-16T12:13:51;4.00;;;2.28;;
68178;SDS011;54998;42.656;23.382;2022-10-16T12:16:28;5.13;;;2.50;;
68178;SDS011;54998;42.656;23.382;2022-10-16T12:19:07;4.90;;;2.20;;
68178;SDS011;54998;42.656;23.382;2022-10-16T12:21:36;4.93;;;2.60;;
68178;SDS011;54998;42.656;23.382;2022-10-16T12:24:02;5.07;;;2.53;;
68178;SDS011;54998;42.656;23.382;2022-10-16T12:26:33;3.30;;;2.28;;
68178;SDS011;54998;42.656;23.382;2022-10-16T12:29:23;10.73;;;2.67;;
68178;SDS011;54998;42.656;23.382;2022-10-16T12:31:53;3.40;;;2.45;;
68178;SDS011;54998;42.656;23.382;2022-10-16T12:34:23;3.72;;;2.20;;
68178;SDS011;54998;42.656;23.382;2022-10-16T12:36:54;3.88;;;2.45;;
68178;SDS011;54998;42.656;23.382;2022-10-16T12:39:24;5.93;;;3.38;;
68178;SDS011;54998;42.656;23.382;2022-10-16T12:42:17;6.20;;;2.70;;
68178;SDS011;54998;42.656;23.382;2022-10-16T12:44:46;6.15;;;2.67;;
68178;SDS011;54998;42.656;23.382;2022-10-16T12:50:02;4.88;;;2.90;;
68178;SDS011;54998;42.656;23.382;2022-10-16T12:52:35;4.40;;;2.65;;
68178;SDS011;54998;42.656;23.382;2022-10-16T12:55:03;4.38;;;2.60;;
68178;SDS011;54998;42.656;23.382;2022-10-16T13:30:15;3.25;;;2.33;;
68178;SDS011;54998;42.656;23.382;2022-10-16T13:32:44;3.88;;;2.70;;
68178;SDS011;54998;42.656;23.382;2022-10-16T13:35:22;3.90;;;2.50;;
68178;SDS011;54998;42.656;23.382;2022-10-16T13:37:50;4.75;;;2.38;;
68178;SDS011;54998;42.656;23.382;2022-10-16T13:40:20;3.38;;;2.33;;
68178;SDS011;54998;42.656;23.382;2022-10-16T13:42:48;3.70;;;2.22;;
68178;SDS011;54998;42.656;23.382;2022-10-16T13:47:44;4.15;;;2.75;;
68178;SDS011;54998;42.656;23.382;2022-10-16T13:50:11;4.65;;;2.50;;
68178;SDS011;54998;42.656;23.382;2022-10-16T13:52:38;6.93;;;2.92;;
68178;SDS011;54998;42.656;23.382;2022-10-16T13:55:04;5.05;;;2.80;;
68178;SDS011;54998;42.656;23.382;2022-10-16T13:57:36;4.55;;;3.35;;
68178;SDS011;54998;42.656;23.382;2022-10-16T14:00:02;3.63;;;2.17;;
68178;SDS011;54998;42.656;23.382;2022-10-16T14:05:00;4.15;;;2.22;;
68178;SDS011;54998;42.656;23.382;2022-10-16T14:07:28;4.32;;;2.50;;
68178;SDS011;54998;42.656;23.382;2022-10-16T14:10:05;6.70;;;2.97;;
68178;SDS011;54998;42.656;23.382;2022-10-16T14:12:41;5.07;;;2.40;;
68178;SDS011;54998;42.656;23.382;2022-10-16T14:15:15;3.33;;;2.55;;
68178;SDS011;54998;42.656;23.382;2022-10-16T14:17:43;5.60;;;3.03;;
68178;SDS011;54998;42.656;23.382;2022-10-16T14:20:14;4.63;;;2.55;;
68178;SDS011;54998;42.656;23.382;2022-10-16T14:22:41;4.03;;;2.20;;
68178;SDS011;54998;42.656;23.382;2022-10-16T14:27:45;4.03;;;2.20;;
68178;SDS011;54998;42.656;23.382;2022-10-16T14:30:22;4.50;;;2.35;;
68178;SDS011;54998;42.656;23.382;2022-10-16T14:35:25;4.38;;;2.78;;
68178;SDS011;54998;42.656;23.382;2022-10-16T14:37:54;3.88;;;2.60;;
68178;SDS011;54998;42.656;23.382;2022-10-16T14:40:25;4.05;;;2.17;;
68178;SDS011;54998;42.656;23.382;2022-10-16T14:42:55;4.47;;;2.20;;
68178;SDS011;54998;42.656;23.382;2022-10-16T14:45:22;4.60;;;2.35;;
68178;SDS011;54998;42.656;23.382;2022-10-16T14:47:52;4.35;;;2.33;;
68178;SDS011;54998;42.656;23.382;2022-10-16T14:50:20;4.97;;;2.25;;
68178;SDS011;54998;42.656;23.382;2022-10-16T14:52:46;5.07;;;2.50;;
68178;SDS011;54998;42.656;23.382;2022-10-16T14:55:11;4.72;;;2.70;;
68178;SDS011;54998;42.656;23.382;2022-10-16T14:57:37;4.22;;;2.85;;
68178;SDS011;54998;42.656;23.382;2022-10-16T15:00:08;5.18;;;2.70;;
68178;SDS011;54998;42.656;23.382;2022-10-16T15:02:40;6.28;;;2.67;;
68178;SDS011;54998;42.656;23.382;2022-10-16T15:07:38;4.28;;;2.60;;
68178;SDS011;54998;42.656;23.382;2022-10-16T15:10:03;4.80;;;2.90;;
68178;SDS011;54998;42.656;23.382;2022-10-16T15:12:29;4.55;;;2.67;;
68178;SDS011;54998;42.656;23.382;2022-10-16T15:14:54;5.40;;;2.60;;
68178;SDS011;54998;42.656;23.382;2022-10-16T15:17:19;7.45;;;2.60;;
68178;SDS011;54998;42.656;23.382;2022-10-16T15:19:45;4.32;;;2.58;;
68178;SDS011;54998;42.656;23.382;2022-10-16T15:22:10;3.17;;;2.35;;
68178;SDS011;54998;42.656;23.382;2022-10-16T15:24:36;5.45;;;3.28;;
68178;SDS011;54998;42.656;23.382;2022-10-16T15:27:02;4.43;;;2.45;;
68178;SDS011;54998;42.656;23.382;2022-10-16T15:29:27;5.50;;;3.80;;
68178;SDS011;54998;42.656;23.382;2022-10-16T15:31:53;3.60;;;2.28;;
68178;SDS011;54998;42.656;23.382;2022-10-16T15:34:18;6.30;;;3.10;;
68178;SDS011;54998;42.656;23.382;2022-10-16T15:36:44;4.63;;;3.25;;
68178;SDS011;54998;42.656;23.382;2022-10-16T15:39:12;5.30;;;3.55;;
68178;SDS011;54998;42.656;23.382;2022-10-16T15:41:39;5.93;;;3.28;;
68178;SDS011;54998;42.656;23.382;2022-10-16T15:44:04;4.95;;;3.22;;
68178;SDS011;54998;42.656;23.382;2022-10-16T15:46:30;5.53;;;3.03;;
68178;SDS011;54998;42.656;23.382;2022-10-16T15:48:57;5.57;;;3.15;;
68178;SDS011;54998;42.656;23.382;2022-10-16T15:51:23;6.20;;;3.40;;
68178;SDS011;54998;42.656;23.382;2022-10-16T15:53:50;7.55;;;3.47;;
68178;SDS011;54998;42.656;23.382;2022-10-16T15:56:16;5.43;;;3.30;;
68178;SDS011;54998;42.656;23.382;2022-10-16T15:58:41;7.53;;;2.75;;
68178;SDS011;54998;42.656;23.382;2022-10-16T16:01:08;7.60;;;3.05;;
68178;SDS011;54998;42.656;23.382;2022-10-16T16:03:37;6.13;;;3.20;;
68178;SDS011;54998;42.656;23.382;2022-10-16T16:06:07;5.85;;;3.28;;
68178;SDS011;54998;42.656;23.382;2022-10-16T16:08:34;4.47;;;2.70;;
68178;SDS011;54998;42.656;23.382;2022-10-16T16:11:01;7.10;;;3.38;;
68178;SDS011;54998;42.656;23.382;2022-10-16T16:13:28;4.10;;;3.25;;
68178;SDS011;54998;42.656;23.382;2022-10-16T16:15:54;6.13;;;2.45;;
68178;SDS011;54998;42.656;23.382;2022-10-16T16:18:19;7.40;;;3.53;;
68178;SDS011;54998;42.656;23.382;2022-10-16T16:20:45;6.88;;;3.80;;
68178;SDS011;54998;42.656;23.382;2022-10-16T16:23:10;8.20;;;4.07;;
68178;SDS011;54998;42.656;23.382;2022-10-16T16:25:35;10.90;;;6.88;;
68178;SDS011;54998;42.656;23.382;2022-10-16T16:28:01;11.93;;;5.85;;
68178;SDS011;54998;42.656;23.382;2022-10-16T16:30:26;10.23;;;3.70;;
68178;SDS011;54998;42.656;23.382;2022-10-16T16:32:52;9.07;;;3.92;;
68178;SDS011;54998;42.656;23.382;2022-10-16T16:35:17;10.43;;;4.50;;
68178;SDS011;54998;42.656;23.382;2022-10-16T16:37:43;11.25;;;4.97;;
68178;SDS011;54998;42.656;23.382;2022-10-16T16:40:08;11.20;;;5.32;;
68178;SDS011;54998;42.656;23.382;2022-10-16T16:42:34;12.98;;;5.57;;
68178;SDS011;54998;42.656;23.382;2022-10-16T16:44:59;10.23;;;4.85;;
68178;SDS011;54998;42.656;23.382;2022-10-16T16:47:25;14.15;;;4.88;;
68178;SDS011;54998;42.656;23.382;2022-10-16T16:49:50;9.75;;;5.20;;
68178;SDS011;54998;42.656;23.382;2022-10-16T16:52:28;11.73;;;5.38;;
68178;SDS011;54998;42.656;23.382;2022-10-16T16:54:54;15.77;;;7.88;;
68178;SDS011;54998;42.656;23.382;2022-10-16T16:57:20;14.30;;;7.13;;
68178;SDS011;54998;42.656;23.382;2022-10-16T16:59:46;12.25;;;7.10;;
68178;SDS011;54998;42.656;23.382;2022-10-16T17:02:12;15.73;;;6.38;;
68178;SDS011;54998;42.656;23.382;2022-10-16T17:04:37;11.23;;;6.60;;
68178;SDS011;54998;42.656;23.382;2022-10-16T17:07:03;33.03;;;15.98;;
68178;SDS011;54998;42.656;23.382;2022-10-16T17:09:28;12.55;;;6.55;;
68178;SDS011;54998;42.656;23.382;2022-10-16T17:11:53;11.88;;;5.20;;
68178;SDS011;54998;42.656;23.382;2022-10-16T17:14:19;11.57;;;6.32;;
68178;SDS011;54998;42.656;23.382;2022-10-16T17:16:44;12.20;;;6.00;;